Time,TemperatureF,DewpointF,PressureIn,WindDirection,WindDirectionDegrees,WindSpeedMPH,WindSpeedGustMPH,Humidity,HourlyPrecipIn,Conditions,Clouds,dailyrainin,SolarRadiationWatts/m^2,SoftwareType,DateUTC
2013-06-20 00:01:00,57.0,42.0,-100.00,WNW,283,13.0,18.0,58,0.00,,,0.00,0.000000,,2013-06-20 07:01:00,
2013-06-20 00:02:00,58.0,43.0,-100.00,WNW,285,13.0,18.0,58,0.00,,,0.00,0.000000,,2013-06-20 07:02:00,
2013-06-20 00:23:00,58.0,43.0,-100.00,WNW,285,13.0,18.0,58,0.00,,,0.00,0.000000,,2013-06-20 07:23:00,
2013-06-20 00:34:00,58.0,43.0,-100.00,WNW,285,13.0,18.0,58,0.00,,,0.00,0.000000,,2013-06-20 07:34:00,
2013-06-20 00:44:00,58.0,43.0,-100.00,WNW,285,13.0,18.0,58,0.00,,,0.00,0.000000,,2013-06-20 07:44:00,
2013-06-20 00:52:00,58.0,43.0,-100.00,WNW,285,13.0,18.0,58,0.00,,,0.00,0.000000,,2013-06-20 07:52:00,
2013-06-20 01:22:00,57.0,41.0,-100.00,WNW,288,13.0,21.0,56,0.00,,,0.00,0.000000,,2013-06-20 08:22:00,
2013-06-20 01:34:00,57.0,41.0,-100.00,WNW,288,13.0,21.0,56,0.00,,,0.00,0.000000,,2013-06-20 08:34:00,
2013-06-20 01:43:00,57.0,41.0,-100.00,WNW,288,13.0,21.0,56,0.00,,,0.00,0.000000,,2013-06-20 08:43:00,
2013-06-20 01:53:00,57.0,41.0,-100.00,WNW,288,13.0,21.0,56,0.00,,,0.00,0.000000,,2013-06-20 08:53:00,
2013-06-20 02:22:00,56.0,41.0,-100.00,WNW,286,10.0,16.0,56,0.00,,,0.00,0.000000,,2013-06-20 09:22:00,
2013-06-20 02:33:00,56.0,41.0,-100.00,WNW,286,10.0,16.0,56,0.00,,,0.00,0.000000,,2013-06-20 09:33:00,
2013-06-20 02:43:00,56.0,41.0,-100.00,WNW,286,10.0,16.0,56,0.00,,,0.00,0.000000,,2013-06-20 09:43:00,
2013-06-20 02:52:00,56.0,41.0,-100.00,WNW,286,10.0,16.0,56,0.00,,,0.00,0.000000,,2013-06-20 09:52:00,
2013-06-20 03:01:00,56.0,41.0,-100.00,WNW,286,10.0,16.0,56,0.00,,,0.00,0.000000,,2013-06-20 10:01:00,
2013-06-20 03:34:00,54.0,41.0,-100.00,WNW,297,10.0,18.0,62,0.00,,,0.00,0.000000,,2013-06-20 10:34:00,
2013-06-20 03:43:00,54.0,41.0,-100.00,WNW,297,10.0,18.0,62,0.00,,,0.00,0.000000,,2013-06-20 10:43:00,
2013-06-20 03:53:00,54.0,41.0,-100.00,WNW,297,10.0,18.0,62,0.00,,,0.00,0.000000,,2013-06-20 10:53:00,
2013-06-20 04:01:00,54.0,41.0,-100.00,WNW,297,10.0,18.0,62,0.00,,,0.00,0.000000,,2013-06-20 11:01:00,
2013-06-20 04:02:00,55.0,39.0,-100.00,NW,317,12.0,15.0,55,0.00,,,0.00,0.000000,,2013-06-20 11:02:00,
2013-06-20 04:22:00,55.0,39.0,-100.00,NW,317,12.0,15.0,55,0.00,,,0.00,0.000000,,2013-06-20 11:22:00,
2013-06-20 04:34:00,55.0,39.0,-100.00,NW,317,12.0,15.0,55,0.00,,,0.00,0.000000,,2013-06-20 11:34:00,
2013-06-20 04:43:00,55.0,39.0,-100.00,NW,317,12.0,15.0,55,0.00,,,0.00,0.000000,,2013-06-20 11:43:00,
2013-06-20 04:53:00,55.0,39.0,-100.00,NW,317,12.0,15.0,55,0.00,,,0.00,0.000000,,2013-06-20 11:53:00,
2013-06-20 05:22:00,60.0,35.0,-100.00,NW,321,7.0,14.0,39,0.00,,,0.00,0.000000,,2013-06-20 12:22:00,
2013-06-20 07:22:00,61.0,43.0,-100.00,NW,308,9.0,14.0,51,-99.99,,,0.00,91.000000,,2013-06-20 14:22:00,
2013-06-20 09:22:00,66.0,41.0,-100.00,NW,310,6.0,15.0,40,0.00,,,0.00,467.000000,,2013-06-20 16:22:00,
2013-06-20 09:43:00,66.0,41.0,-100.00,NW,310,6.0,15.0,40,0.00,,,0.00,467.000000,,2013-06-20 16:43:00,
2013-06-20 09:52:00,66.0,41.0,-100.00,NW,310,6.0,15.0,40,0.00,,,0.00,467.000000,,2013-06-20 16:52:00,
2013-06-20 10:01:00,66.0,41.0,-100.00,NW,310,6.0,15.0,40,0.00,,,0.00,467.000000,,2013-06-20 17:01:00,
2013-06-20 10:43:00,67.0,41.0,-100.00,ENE,62,7.0,20.0,38,0.00,,,0.00,655.000000,,2013-06-20 17:43:00,
2013-06-20 10:53:00,67.0,41.0,-100.00,ENE,62,7.0,20.0,38,0.00,,,0.00,655.000000,,2013-06-20 17:53:00,
2013-06-20 11:01:00,67.0,41.0,-100.00,ENE,62,7.0,20.0,38,0.00,,,0.00,655.000000,,2013-06-20 18:01:00,
2013-06-20 11:22:00,70.0,43.0,-100.00,East,95,6.0,12.0,37,0.00,,,0.00,817.000000,,2013-06-20 18:22:00,
2013-06-20 11:33:00,70.0,43.0,-100.00,East,95,6.0,12.0,37,0.00,,,0.00,817.000000,,2013-06-20 18:33:00,
2013-06-20 11:43:00,70.0,43.0,-100.00,East,95,6.0,12.0,37,0.00,,,0.00,817.000000,,2013-06-20 18:43:00,
2013-06-20 11:53:00,70.0,43.0,-100.00,East,95,6.0,12.0,37,0.00,,,0.00,817.000000,,2013-06-20 18:53:00,
2013-06-20 12:01:00,70.0,43.0,-100.00,East,95,6.0,12.0,37,0.00,,,0.00,817.000000,,2013-06-20 19:01:00,
2013-06-20 12:34:00,72.0,44.0,-100.00,East,98,5.0,13.0,36,0.00,,,0.00,930.000000,,2013-06-20 19:34:00,
2013-06-20 12:43:00,72.0,44.0,-100.00,East,98,5.0,13.0,36,0.00,,,0.00,930.000000,,2013-06-20 19:43:00,
2013-06-20 12:52:00,72.0,44.0,-100.00,East,98,5.0,13.0,36,0.00,,,0.00,930.000000,,2013-06-20 19:52:00,
2013-06-20 13:01:00,72.0,44.0,-100.00,East,98,5.0,13.0,36,0.00,,,0.00,930.000000,,2013-06-20 20:01:00,
2013-06-20 13:33:00,74.0,44.0,-100.00,East,81,8.0,12.0,34,0.00,,,0.00,985.000000,,2013-06-20 20:33:00,
2013-06-20 13:43:00,74.0,44.0,-100.00,East,81,8.0,12.0,34,0.00,,,0.00,985.000000,,2013-06-20 20:43:00,
2013-06-20 13:52:00,74.0,44.0,-100.00,East,81,8.0,12.0,34,0.00,,,0.00,985.000000,,2013-06-20 20:52:00,
2013-06-20 14:01:00,74.0,44.0,-100.00,East,81,8.0,12.0,34,0.00,,,0.00,985.000000,,2013-06-20 21:01:00,